createdAt,value
2022-10-11T00:00:28.713Z,13.83
2022-10-11T00:05:36.935Z,17.33
2022-10-11T00:10:45.506Z,17.20
2022-10-11T00:15:53.810Z,15.03
2022-10-11T00:21:03.466Z,17.90
2022-10-11T00:26:12.583Z,16.83
2022-10-11T00:31:21.469Z,17.37
2022-10-11T00:36:29.378Z,15.67
2022-10-11T00:41:37.436Z,16.37
2022-10-11T00:46:47.406Z,13.80
2022-10-11T00:51:59.249Z,16.70
2022-10-11T00:57:09.322Z,16.77
2022-10-11T01:02:17.557Z,16.97
2022-10-11T01:07:28.031Z,18.30
2022-10-11T01:12:36.168Z,22.67
2022-10-11T01:17:47.186Z,19.00
2022-10-11T01:22:59.985Z,18.20
2022-10-11T01:28:11.165Z,15.87
2022-10-11T01:33:22.398Z,15.80
2022-10-11T01:38:33.550Z,14.23
2022-10-11T01:43:41.770Z,14.90
2022-10-11T01:48:52.431Z,13.93
2022-10-11T01:54:04.781Z,11.80
2022-10-11T01:59:15.914Z,14.90
2022-10-11T02:04:26.288Z,14.40
2022-10-11T02:09:37.728Z,18.53
2022-10-11T02:14:48.736Z,12.37
2022-10-11T02:19:56.808Z,17.37
2022-10-11T02:25:06.778Z,17.80
2022-10-11T02:30:15.359Z,17.47
2022-10-11T02:35:24.365Z,16.77
2022-10-11T02:40:34.184Z,16.83
2022-10-11T02:45:45.462Z,18.57
2022-10-11T02:50:53.613Z,16.70
2022-10-11T02:56:01.892Z,20.57
2022-10-11T03:01:09.959Z,22.53
2022-10-11T03:06:17.826Z,21.47
2022-10-11T03:11:26.276Z,21.57
2022-10-11T03:16:34.260Z,17.30
2022-10-11T03:21:42.732Z,21.50
2022-10-11T03:26:50.687Z,20.40
2022-10-11T03:31:59.332Z,18.60
2022-10-11T03:37:07.473Z,17.67
2022-10-11T03:42:15.479Z,17.70
2022-10-11T03:47:23.408Z,17.90
2022-10-11T03:52:32.146Z,14.00
2022-10-11T03:57:40.089Z,15.07
2022-10-11T04:02:48.023Z,16.87
2022-10-11T04:07:56.029Z,15.97
2022-10-11T04:13:03.916Z,14.83
2022-10-11T04:18:12.481Z,18.27
2022-10-11T04:23:20.448Z,17.03
2022-10-11T04:28:28.336Z,17.80
2022-10-11T04:33:36.393Z,16.93
2022-10-11T04:38:45.294Z,17.30
2022-10-11T04:43:53.229Z,17.30
2022-10-11T04:49:01.218Z,20.07
2022-10-11T04:54:10.094Z,22.80
2022-10-11T04:59:19.112Z,19.90
2022-10-11T05:04:27.450Z,19.23
2022-10-11T05:09:35.349Z,17.37
2022-10-11T05:14:43.307Z,18.40
2022-10-11T05:19:51.283Z,16.27
2022-10-11T05:24:59.193Z,22.73
2022-10-11T05:30:07.672Z,14.63
2022-10-11T05:35:15.795Z,14.77
2022-10-11T05:40:23.595Z,15.67
2022-10-11T05:45:33.105Z,21.43
2022-10-11T05:50:41.381Z,16.03
2022-10-11T05:55:49.386Z,20.60
2022-10-11T06:00:57.431Z,15.23
2022-10-11T06:06:06.045Z,16.83
2022-10-11T06:11:16.478Z,22.80
2022-10-11T06:16:24.743Z,21.00
2022-10-11T06:21:33.113Z,20.03
2022-10-11T06:26:41.059Z,22.27
2022-10-11T06:31:49.859Z,14.83
2022-10-11T06:36:58.165Z,16.73
2022-10-11T06:42:06.053Z,18.70
2022-10-11T06:47:13.900Z,15.47
2022-10-11T06:52:21.827Z,17.47
2022-10-11T06:57:30.310Z,11.10
2022-10-11T07:02:38.637Z,18.50
2022-10-11T07:07:46.552Z,17.53
2022-10-11T07:12:54.434Z,15.47
2022-10-11T07:18:02.412Z,14.53
2022-10-11T07:23:10.999Z,15.93
2022-10-11T07:28:19.019Z,10.87
2022-10-11T07:33:27.553Z,14.47
2022-10-11T07:38:35.443Z,8.87
2022-10-11T07:43:44.518Z,10.87
2022-10-11T07:48:53.955Z,12.10
2022-10-11T07:54:06.828Z,12.33
2022-10-11T07:59:12.125Z,8.27
2022-10-11T08:04:21.640Z,12.03
2022-10-11T08:09:30.348Z,10.00
2022-10-11T08:14:38.342Z,9.10
2022-10-11T08:19:46.242Z,8.30
2022-10-11T08:24:54.184Z,11.10
2022-10-11T08:30:02.014Z,10.87
2022-10-11T08:35:09.924Z,8.47
2022-10-11T08:40:20.065Z,7.53
2022-10-11T08:45:31.410Z,10.37
2022-10-11T08:50:39.417Z,7.83
2022-10-11T08:55:51.237Z,6.10
2022-10-11T09:00:59.958Z,13.70
2022-10-11T09:06:12.159Z,7.03
2022-10-11T09:11:26.429Z,8.80
2022-10-11T09:16:37.526Z,5.27
2022-10-11T09:21:48.584Z,10.27
2022-10-11T09:26:59.984Z,9.70
2022-10-11T09:32:12.615Z,6.37
2022-10-11T09:37:24.196Z,6.20
2022-10-11T09:42:32.014Z,7.70
2022-10-11T09:47:40.092Z,10.80
2022-10-11T09:52:51.235Z,9.50
2022-10-11T09:57:59.800Z,13.17
2022-10-11T10:03:09.223Z,9.33
2022-10-11T10:08:23.465Z,11.50
2022-10-11T10:13:34.558Z,6.23
2022-10-11T10:18:44.942Z,5.90
2022-10-11T10:23:55.105Z,5.13
2022-10-11T10:29:06.007Z,6.63
2022-10-11T10:34:16.877Z,3.87
2022-10-11T10:39:28.682Z,8.27
2022-10-11T10:44:37.172Z,5.93
2022-10-11T10:49:54.248Z,6.00
2022-10-11T10:55:01.780Z,8.40
2022-10-11T11:00:12.802Z,7.77
2022-10-11T11:05:24.746Z,7.90
2022-10-11T11:10:37.080Z,6.73
2022-10-11T11:15:48.486Z,4.87
2022-10-11T11:20:59.698Z,6.80
2022-10-11T11:26:11.246Z,8.20
2022-10-11T11:31:22.313Z,3.17
2022-10-11T11:36:33.267Z,6.40
2022-10-11T11:41:44.454Z,16.10
2022-10-11T11:46:55.916Z,9.73
2022-10-11T11:52:04.910Z,8.43
2022-10-11T11:57:15.911Z,1.43
2022-10-11T12:02:27.511Z,4.90
2022-10-11T12:07:38.546Z,7.53
2022-10-11T12:12:46.466Z,7.77
2022-10-11T12:17:58.026Z,3.30
2022-10-11T12:23:09.337Z,6.37
2022-10-11T12:28:20.489Z,5.83
2022-10-11T12:33:32.915Z,6.87
2022-10-11T12:38:42.035Z,9.87
2022-10-11T12:49:06.134Z,6.03
2022-10-11T12:54:36.909Z,6.20
2022-10-11T12:59:27.125Z,8.53
2022-10-11T13:04:36.165Z,13.97
2022-10-11T13:09:48.950Z,10.20
2022-10-11T13:14:57.742Z,6.10
2022-10-11T13:20:08.966Z,3.07
2022-10-11T13:25:20.206Z,10.30
2022-10-11T13:30:30.858Z,3.03
2022-10-11T13:35:39.330Z,6.20
2022-10-11T13:40:50.816Z,13.33
2022-10-11T13:45:59.193Z,5.90
2022-10-11T13:51:09.542Z,11.97
2022-10-11T13:56:17.315Z,6.23
2022-10-11T14:01:28.322Z,17.73
2022-10-11T14:06:39.252Z,6.40
2022-10-11T14:11:49.221Z,4.63
2022-10-11T14:16:58.809Z,4.70
2022-10-11T14:22:07.524Z,11.17
2022-10-11T14:27:18.638Z,16.60
2022-10-11T14:32:30.010Z,7.23
2022-10-11T14:37:38.442Z,4.30
2022-10-11T14:42:46.396Z,9.43
2022-10-11T14:47:54.360Z,10.33
2022-10-11T14:53:03.270Z,14.37
2022-10-11T14:58:12.689Z,8.17
2022-10-11T15:03:20.922Z,6.20
2022-10-11T15:08:28.684Z,8.13
2022-10-11T15:13:36.470Z,8.43
2022-10-11T15:18:44.590Z,14.67
2022-10-11T15:23:53.334Z,9.17
2022-10-11T15:29:01.318Z,20.00
2022-10-11T15:34:09.458Z,10.03
2022-10-11T15:39:20.981Z,20.13
2022-10-11T15:44:29.282Z,16.10
2022-10-11T15:49:37.304Z,18.57
2022-10-11T15:54:46.122Z,7.13
2022-10-11T15:59:54.004Z,11.87
2022-10-11T16:05:05.097Z,7.20
2022-10-11T16:10:13.633Z,16.97
2022-10-11T16:15:21.700Z,8.97
2022-10-11T16:20:30.786Z,11.50
2022-10-11T16:25:39.258Z,12.07
2022-10-11T16:30:47.136Z,16.70
2022-10-11T16:35:57.063Z,15.73
2022-10-11T16:41:06.802Z,13.17
2022-10-11T16:46:14.943Z,23.47
2022-10-11T16:51:25.153Z,19.30
2022-10-11T16:56:38.817Z,15.53
2022-10-11T17:01:43.755Z,17.57
2022-10-11T17:06:52.082Z,25.70
2022-10-11T17:12:01.054Z,26.93
2022-10-11T17:17:09.706Z,28.37
2022-10-11T17:22:22.942Z,42.13
2022-10-11T17:27:31.507Z,31.70
2022-10-11T17:32:40.019Z,31.40
2022-10-11T17:37:49.505Z,25.63
2022-10-11T17:42:57.637Z,33.03
2022-10-11T17:48:05.835Z,29.20
2022-10-11T17:53:14.317Z,35.60
2022-10-11T17:58:22.290Z,34.47
2022-10-11T18:03:31.750Z,32.30
2022-10-11T18:08:40.740Z,34.97
2022-10-11T18:13:49.530Z,30.30
2022-10-11T18:18:57.733Z,24.53
2022-10-11T18:24:08.088Z,23.93
2022-10-11T18:29:16.558Z,28.00
2022-10-11T18:34:24.636Z,23.57
2022-10-11T18:39:32.779Z,27.73
2022-10-11T18:44:40.955Z,22.40
2022-10-11T18:49:50.034Z,27.77
2022-10-11T18:54:58.821Z,21.23
2022-10-11T19:00:29.395Z,26.90
2022-10-11T19:05:18.520Z,25.80
2022-10-11T19:10:26.885Z,20.50
2022-10-11T19:15:37.109Z,30.10
2022-10-11T19:20:45.113Z,33.80
2022-10-11T19:25:56.900Z,30.83
2022-10-11T19:31:06.524Z,24.27
2022-10-11T19:36:15.524Z,30.33
2022-10-11T19:41:24.282Z,32.57
2022-10-11T19:46:50.428Z,46.33
2022-10-11T19:51:42.071Z,39.87
2022-10-11T19:56:50.025Z,39.43
2022-10-11T20:01:58.008Z,39.37
2022-10-11T20:07:06.064Z,35.80
2022-10-11T20:12:14.164Z,31.40
2022-10-11T20:17:22.409Z,33.73
2022-10-11T20:22:31.188Z,32.10
2022-10-11T20:27:41.126Z,29.80
2022-10-11T20:32:50.053Z,45.53
2022-10-11T20:37:58.249Z,47.40
2022-10-11T20:43:06.393Z,47.13
2022-10-11T20:48:14.381Z,49.43
2022-10-11T20:53:22.387Z,52.20
2022-10-11T20:58:30.867Z,54.10
2022-10-11T21:03:40.465Z,57.43
2022-10-11T21:08:48.284Z,51.20
2022-10-11T21:13:58.598Z,64.27
2022-10-11T21:19:06.586Z,57.30
2022-10-11T21:24:14.533Z,54.20
2022-10-11T21:29:22.743Z,62.53
2022-10-11T21:34:30.927Z,50.63
2022-10-11T21:39:39.324Z,60.37
2022-10-11T21:44:47.356Z,59.07
2022-10-11T21:49:56.300Z,50.07
2022-10-11T21:55:04.156Z,62.10
2022-10-11T22:00:14.980Z,55.87
2022-10-11T22:05:23.148Z,60.20
2022-10-11T22:10:31.749Z,50.40
2022-10-11T22:15:40.181Z,54.37
2022-10-11T22:20:48.312Z,47.63
2022-10-11T22:25:56.848Z,54.27
2022-10-11T22:31:06.513Z,61.23
2022-10-11T22:36:16.562Z,54.53
2022-10-11T22:41:24.975Z,55.97
2022-10-11T22:46:32.847Z,50.23
2022-10-11T22:51:40.917Z,57.60
2022-10-11T22:56:49.371Z,54.47
2022-10-11T23:01:57.253Z,50.23
2022-10-11T23:07:05.342Z,47.40
2022-10-11T23:12:14.979Z,52.97
2022-10-11T23:17:23.963Z,57.80
2022-10-11T23:22:31.982Z,40.33
2022-10-11T23:27:40.281Z,43.07
2022-10-11T23:32:48.412Z,50.70
2022-10-11T23:37:56.636Z,39.90
2022-10-11T23:43:04.651Z,38.50
2022-10-11T23:48:12.850Z,43.77
2022-10-11T23:53:21.868Z,33.20
2022-10-11T23:58:29.687Z,37.03
